sensor_id;sensor_type;location;lat;lon;timestamp;temperature;humidity
55064;DHT22;40963;52.168;21.296;2023-04-09T00:01:15;8.40;99.90
55064;DHT22;40963;52.168;21.296;2023-04-09T00:03:40;8.40;99.90
55064;DHT22;40963;52.168;21.296;2023-04-09T00:06:06;8.40;99.90
55064;DHT22;40963;52.168;21.296;2023-04-09T00:08:32;8.40;99.90
55064;DHT22;40963;52.168;21.296;2023-04-09T00:10:58;8.50;99.90
55064;DHT22;40963;52.168;21.296;2023-04-09T00:13:24;8.50;99.90
55064;DHT22;40963;52.168;21.296;2023-04-09T00:15:50;8.50;99.90
55064;DHT22;40963;52.168;21.296;2023-04-09T00:18:16;8.50;99.90
55064;DHT22;40963;52.168;21.296;2023-04-09T00:20:42;8.50;99.90
55064;DHT22;40963;52.168;21.296;2023-04-09T00:23:08;8.50;99.90
55064;DHT22;40963;52.168;21.296;2023-04-09T00:25:34;8.50;99.90
55064;DHT22;40963;52.168;21.296;2023-04-09T00:28:00;8.50;99.90
55064;DHT22;40963;52.168;21.296;2023-04-09T00:30:29;8.50;99.90
55064;DHT22;40963;52.168;21.296;2023-04-09T00:32:55;8.40;99.90
55064;DHT22;40963;52.168;21.296;2023-04-09T00:35:20;8.40;99.90
55064;DHT22;40963;52.168;21.296;2023-04-09T00:37:46;8.40;99.90
55064;DHT22;40963;52.168;21.296;2023-04-09T00:40:12;8.40;99.90
55064;DHT22;40963;52.168;21.296;2023-04-09T00:42:37;8.40;99.90
55064;DHT22;40963;52.168;21.296;2023-04-09T00:45:04;8.40;99.90
55064;DHT22;40963;52.168;21.296;2023-04-09T00:47:30;8.40;99.90
55064;DHT22;40963;52.168;21.296;2023-04-09T00:49:56;8.40;99.90
55064;DHT22;40963;52.168;21.296;2023-04-09T00:52:22;8.40;99.90
55064;DHT22;40963;52.168;21.296;2023-04-09T00:54:49;8.40;99.90
55064;DHT22;40963;52.168;21.296;2023-04-09T00:57:15;8.40;99.90
55064;DHT22;40963;52.168;21.296;2023-04-09T00:59:42;8.30;99.90
55064;DHT22;40963;52.168;21.296;2023-04-09T01:02:08;8.30;99.90
55064;DHT22;40963;52.168;21.296;2023-04-09T01:04:34;8.30;99.90
55064;DHT22;40963;52.168;21.296;2023-04-09T01:07:17;8.30;99.90
55064;DHT22;40963;52.168;21.296;2023-04-09T01:10:45;8.20;99.90
55064;DHT22;40963;52.168;21.296;2023-04-09T01:13:12;8.20;99.90
55064;DHT22;40963;52.168;21.296;2023-04-09T01:15:48;8.20;99.90
55064;DHT22;40963;52.168;21.296;2023-04-09T01:18:18;8.10;99.90
55064;DHT22;40963;52.168;21.296;2023-04-09T01:20:59;8.10;99.90
55064;DHT22;40963;52.168;21.296;2023-04-09T01:26:52;8.10;99.90
55064;DHT22;40963;52.168;21.296;2023-04-09T01:29:20;8.00;99.90
55064;DHT22;40963;52.168;21.296;2023-04-09T01:31:48;8.10;99.90
55064;DHT22;40963;52.168;21.296;2023-04-09T01:34:15;8.10;99.90
55064;DHT22;40963;52.168;21.296;2023-04-09T01:36:43;8.10;99.90
55064;DHT22;40963;52.168;21.296;2023-04-09T01:39:09;8.10;99.90
55064;DHT22;40963;52.168;21.296;2023-04-09T01:41:36;8.10;99.90
55064;DHT22;40963;52.168;21.296;2023-04-09T01:44:03;8.10;99.90
55064;DHT22;40963;52.168;21.296;2023-04-09T01:46:30;8.10;99.90
55064;DHT22;40963;52.168;21.296;2023-04-09T01:48:58;8.10;99.90
55064;DHT22;40963;52.168;21.296;2023-04-09T01:51:24;8.10;99.90
55064;DHT22;40963;52.168;21.296;2023-04-09T01:53:51;8.10;99.90
55064;DHT22;40963;52.168;21.296;2023-04-09T01:56:17;8.00;99.90
55064;DHT22;40963;52.168;21.296;2023-04-09T01:58:42;8.10;99.90
55064;DHT22;40963;52.168;21.296;2023-04-09T02:01:12;8.00;99.90
55064;DHT22;40963;52.168;21.296;2023-04-09T02:04:02;8.00;99.90
55064;DHT22;40963;52.168;21.296;2023-04-09T02:07:09;8.00;99.90
55064;DHT22;40963;52.168;21.296;2023-04-09T02:09:33;8.00;99.90
55064;DHT22;40963;52.168;21.296;2023-04-09T02:12:03;8.00;99.90
55064;DHT22;40963;52.168;21.296;2023-04-09T02:14:31;8.00;99.90
55064;DHT22;40963;52.168;21.296;2023-04-09T02:16:58;8.00;99.90
55064;DHT22;40963;52.168;21.296;2023-04-09T02:19:24;8.00;99.90
55064;DHT22;40963;52.168;21.296;2023-04-09T02:21:49;8.00;99.90
55064;DHT22;40963;52.168;21.296;2023-04-09T02:24:15;8.00;99.90
55064;DHT22;40963;52.168;21.296;2023-04-09T02:26:40;8.00;99.90
55064;DHT22;40963;52.168;21.296;2023-04-09T02:29:06;8.00;99.90
55064;DHT22;40963;52.168;21.296;2023-04-09T02:31:31;8.00;99.90
55064;DHT22;40963;52.168;21.296;2023-04-09T02:33:57;8.00;99.90
55064;DHT22;40963;52.168;21.296;2023-04-09T02:36:22;7.90;99.90
55064;DHT22;40963;52.168;21.296;2023-04-09T02:38:48;8.00;99.90
55064;DHT22;40963;52.168;21.296;2023-04-09T02:41:14;7.90;99.90
55064;DHT22;40963;52.168;21.296;2023-04-09T02:43:39;7.90;99.90
55064;DHT22;40963;52.168;21.296;2023-04-09T02:46:06;7.90;99.90
55064;DHT22;40963;52.168;21.296;2023-04-09T02:48:31;7.90;99.90
55064;DHT22;40963;52.168;21.296;2023-04-09T02:50:57;7.90;99.90
55064;DHT22;40963;52.168;21.296;2023-04-09T02:53:23;7.90;99.90
55064;DHT22;40963;52.168;21.296;2023-04-09T02:55:48;7.90;99.90
55064;DHT22;40963;52.168;21.296;2023-04-09T02:58:14;7.90;99.90
55064;DHT22;40963;52.168;21.296;2023-04-09T03:00:40;7.90;99.90
55064;DHT22;40963;52.168;21.296;2023-04-09T03:03:05;7.80;99.90
55064;DHT22;40963;52.168;21.296;2023-04-09T03:05:31;7.80;99.90
55064;DHT22;40963;52.168;21.296;2023-04-09T03:07:56;7.80;99.90
55064;DHT22;40963;52.168;21.296;2023-04-09T03:10:22;7.80;99.90
55064;DHT22;40963;52.168;21.296;2023-04-09T03:12:47;7.80;99.90
55064;DHT22;40963;52.168;21.296;2023-04-09T03:15:13;7.70;99.90
55064;DHT22;40963;52.168;21.296;2023-04-09T03:17:39;7.80;99.90
55064;DHT22;40963;52.168;21.296;2023-04-09T03:20:06;7.70;99.90
55064;DHT22;40963;52.168;21.296;2023-04-09T03:22:36;7.70;99.90
55064;DHT22;40963;52.168;21.296;2023-04-09T03:25:02;7.70;99.90
55064;DHT22;40963;52.168;21.296;2023-04-09T03:27:28;7.70;99.90
55064;DHT22;40963;52.168;21.296;2023-04-09T03:29:56;7.60;99.90
55064;DHT22;40963;52.168;21.296;2023-04-09T03:32:22;7.60;99.90
55064;DHT22;40963;52.168;21.296;2023-04-09T03:34:47;7.50;99.90
55064;DHT22;40963;52.168;21.296;2023-04-09T03:37:13;7.50;99.90
55064;DHT22;40963;52.168;21.296;2023-04-09T03:39:38;7.40;99.90
55064;DHT22;40963;52.168;21.296;2023-04-09T03:42:04;7.40;99.90
55064;DHT22;40963;52.168;21.296;2023-04-09T03:44:30;7.30;99.90
55064;DHT22;40963;52.168;21.296;2023-04-09T03:46:55;7.30;99.90
55064;DHT22;40963;52.168;21.296;2023-04-09T03:49:21;7.20;99.90
55064;DHT22;40963;52.168;21.296;2023-04-09T03:51:47;7.20;99.90
55064;DHT22;40963;52.168;21.296;2023-04-09T03:54:12;7.10;99.90
55064;DHT22;40963;52.168;21.296;2023-04-09T03:56:38;7.10;99.90
55064;DHT22;40963;52.168;21.296;2023-04-09T03:59:03;7.10;99.90
55064;DHT22;40963;52.168;21.296;2023-04-09T04:01:29;7.00;99.90
55064;DHT22;40963;52.168;21.296;2023-04-09T04:03:54;7.00;99.90
55064;DHT22;40963;52.168;21.296;2023-04-09T04:06:20;7.00;99.90
55064;DHT22;40963;52.168;21.296;2023-04-09T04:08:46;6.90;99.90
55064;DHT22;40963;52.168;21.296;2023-04-09T04:11:11;6.90;99.90
55064;DHT22;40963;52.168;21.296;2023-04-09T04:13:37;6.90;99.90
55064;DHT22;40963;52.168;21.296;2023-04-09T04:16:06;6.90;99.90
55064;DHT22;40963;52.168;21.296;2023-04-09T04:18:32;6.90;99.90
55064;DHT22;40963;52.168;21.296;2023-04-09T04:20:58;6.90;99.90
55064;DHT22;40963;52.168;21.296;2023-04-09T04:23:23;6.90;99.90
55064;DHT22;40963;52.168;21.296;2023-04-09T04:25:49;7.00;99.90
55064;DHT22;40963;52.168;21.296;2023-04-09T04:28:15;7.00;99.90
55064;DHT22;40963;52.168;21.296;2023-04-09T04:30:41;7.00;99.90
55064;DHT22;40963;52.168;21.296;2023-04-09T04:33:07;7.00;99.90
55064;DHT22;40963;52.168;21.296;2023-04-09T04:35:32;7.00;99.90
55064;DHT22;40963;52.168;21.296;2023-04-09T04:37:58;7.10;99.90
55064;DHT22;40963;52.168;21.296;2023-04-09T04:40:24;7.10;99.90
55064;DHT22;40963;52.168;21.296;2023-04-09T04:42:49;7.10;99.90
55064;DHT22;40963;52.168;21.296;2023-04-09T04:45:15;7.10;99.90
55064;DHT22;40963;52.168;21.296;2023-04-09T04:47:40;7.10;99.90
55064;DHT22;40963;52.168;21.296;2023-04-09T04:50:08;7.10;99.90
55064;DHT22;40963;52.168;21.296;2023-04-09T04:52:33;7.20;99.90
55064;DHT22;40963;52.168;21.296;2023-04-09T04:55:00;7.20;99.90
55064;DHT22;40963;52.168;21.296;2023-04-09T04:57:25;7.20;99.90
55064;DHT22;40963;52.168;21.296;2023-04-09T04:59:51;7.30;99.90
55064;DHT22;40963;52.168;21.296;2023-04-09T05:02:16;7.30;99.90
55064;DHT22;40963;52.168;21.296;2023-04-09T05:04:42;7.30;99.90
55064;DHT22;40963;52.168;21.296;2023-04-09T05:07:07;7.40;99.90
55064;DHT22;40963;52.168;21.296;2023-04-09T05:09:33;7.40;99.90
55064;DHT22;40963;52.168;21.296;2023-04-09T05:11:59;7.50;99.90
55064;DHT22;40963;52.168;21.296;2023-04-09T05:14:25;7.50;99.90
55064;DHT22;40963;52.168;21.296;2023-04-09T05:16:51;7.60;99.90
55064;DHT22;40963;52.168;21.296;2023-04-09T05:19:16;7.60;99.90
55064;DHT22;40963;52.168;21.296;2023-04-09T05:21:42;7.60;99.90
55064;DHT22;40963;52.168;21.296;2023-04-09T05:24:07;7.70;99.90
55064;DHT22;40963;52.168;21.296;2023-04-09T05:26:33;7.70;99.90
55064;DHT22;40963;52.168;21.296;2023-04-09T05:28:58;7.80;99.90
55064;DHT22;40963;52.168;21.296;2023-04-09T05:31:24;7.90;99.90
55064;DHT22;40963;52.168;21.296;2023-04-09T05:33:50;8.00;99.90
55064;DHT22;40963;52.168;21.296;2023-04-09T05:36:18;8.00;99.90
55064;DHT22;40963;52.168;21.296;2023-04-09T05:38:45;8.20;99.90
55064;DHT22;40963;52.168;21.296;2023-04-09T05:41:10;8.20;99.90
55064;DHT22;40963;52.168;21.296;2023-04-09T05:43:36;8.30;99.90
55064;DHT22;40963;52.168;21.296;2023-04-09T05:46:02;8.40;99.90
55064;DHT22;40963;52.168;21.296;2023-04-09T05:48:27;8.40;99.90
55064;DHT22;40963;52.168;21.296;2023-04-09T05:50:53;8.50;99.90
55064;DHT22;40963;52.168;21.296;2023-04-09T05:53:19;8.50;99.90
55064;DHT22;40963;52.168;21.296;2023-04-09T05:55:45;8.50;99.90
55064;DHT22;40963;52.168;21.296;2023-04-09T05:58:13;8.50;99.90
55064;DHT22;40963;52.168;21.296;2023-04-09T06:00:40;8.60;99.90
55064;DHT22;40963;52.168;21.296;2023-04-09T06:03:06;8.60;99.90
55064;DHT22;40963;52.168;21.296;2023-04-09T06:05:31;8.70;99.90
55064;DHT22;40963;52.168;21.296;2023-04-09T06:07:57;8.70;99.90
55064;DHT22;40963;52.168;21.296;2023-04-09T06:10:23;8.70;99.90
55064;DHT22;40963;52.168;21.296;2023-04-09T06:12:48;8.80;99.90
55064;DHT22;40963;52.168;21.296;2023-04-09T06:15:14;8.80;99.90
55064;DHT22;40963;52.168;21.296;2023-04-09T06:17:40;8.90;99.90
55064;DHT22;40963;52.168;21.296;2023-04-09T06:20:06;8.90;99.90
55064;DHT22;40963;52.168;21.296;2023-04-09T06:22:31;8.90;99.90
55064;DHT22;40963;52.168;21.296;2023-04-09T06:24:57;9.00;99.90
55064;DHT22;40963;52.168;21.296;2023-04-09T06:27:23;9.10;99.90
55064;DHT22;40963;52.168;21.296;2023-04-09T06:29:48;9.10;99.90
55064;DHT22;40963;52.168;21.296;2023-04-09T06:32:14;9.20;99.90
55064;DHT22;40963;52.168;21.296;2023-04-09T06:34:39;9.20;99.90
55064;DHT22;40963;52.168;21.296;2023-04-09T06:37:05;9.30;99.90
55064;DHT22;40963;52.168;21.296;2023-04-09T06:39:30;9.40;99.90
55064;DHT22;40963;52.168;21.296;2023-04-09T06:41:57;9.50;99.90
55064;DHT22;40963;52.168;21.296;2023-04-09T06:44:22;9.70;99.90
55064;DHT22;40963;52.168;21.296;2023-04-09T06:46:49;9.80;99.90
55064;DHT22;40963;52.168;21.296;2023-04-09T06:49:14;9.90;99.90
55064;DHT22;40963;52.168;21.296;2023-04-09T06:51:40;10.00;99.90
55064;DHT22;40963;52.168;21.296;2023-04-09T06:54:05;10.10;99.90
55064;DHT22;40963;52.168;21.296;2023-04-09T06:56:32;10.20;99.90
55064;DHT22;40963;52.168;21.296;2023-04-09T06:58:57;10.30;99.90
55064;DHT22;40963;52.168;21.296;2023-04-09T07:01:23;10.30;99.90
55064;DHT22;40963;52.168;21.296;2023-04-09T07:03:49;10.30;99.90
55064;DHT22;40963;52.168;21.296;2023-04-09T07:06:15;10.40;99.90
55064;DHT22;40963;52.168;21.296;2023-04-09T07:08:42;10.50;99.90
55064;DHT22;40963;52.168;21.296;2023-04-09T07:11:07;10.50;99.90
55064;DHT22;40963;52.168;21.296;2023-04-09T07:13:33;10.60;99.90
55064;DHT22;40963;52.168;21.296;2023-04-09T07:15:58;10.60;99.90
55064;DHT22;40963;52.168;21.296;2023-04-09T07:18:24;10.60;99.90
55064;DHT22;40963;52.168;21.296;2023-04-09T07:20:51;10.70;99.90
55064;DHT22;40963;52.168;21.296;2023-04-09T07:23:16;10.80;99.90
55064;DHT22;40963;52.168;21.296;2023-04-09T07:25:42;10.90;99.90
55064;DHT22;40963;52.168;21.296;2023-04-09T07:28:08;11.00;99.90
55064;DHT22;40963;52.168;21.296;2023-04-09T07:30:34;11.10;99.90
55064;DHT22;40963;52.168;21.296;2023-04-09T07:32:59;11.30;99.90
55064;DHT22;40963;52.168;21.296;2023-04-09T07:35:25;11.40;99.90
55064;DHT22;40963;52.168;21.296;2023-04-09T07:37:51;11.50;99.90
55064;DHT22;40963;52.168;21.296;2023-04-09T07:40:16;11.60;99.90
55064;DHT22;40963;52.168;21.296;2023-04-09T07:42:42;11.80;99.90
55064;DHT22;40963;52.168;21.296;2023-04-09T07:45:08;11.80;99.90
55064;DHT22;40963;52.168;21.296;2023-04-09T07:47:33;11.80;99.90
55064;DHT22;40963;52.168;21.296;2023-04-09T07:49:59;11.90;99.90
55064;DHT22;40963;52.168;21.296;2023-04-09T07:52:25;12.00;99.90
55064;DHT22;40963;52.168;21.296;2023-04-09T07:54:50;12.10;99.90
55064;DHT22;40963;52.168;21.296;2023-04-09T07:57:16;12.20;99.90
55064;DHT22;40963;52.168;21.296;2023-04-09T07:59:41;12.30;99.90
55064;DHT22;40963;52.168;21.296;2023-04-09T08:02:07;12.40;99.90
55064;DHT22;40963;52.168;21.296;2023-04-09T08:04:33;12.40;99.90
55064;DHT22;40963;52.168;21.296;2023-04-09T08:06:58;12.50;99.90
55064;DHT22;40963;52.168;21.296;2023-04-09T08:09:24;12.60;99.90
55064;DHT22;40963;52.168;21.296;2023-04-09T08:11:50;12.60;99.90
55064;DHT22;40963;52.168;21.296;2023-04-09T08:14:16;12.60;99.90
55064;DHT22;40963;52.168;21.296;2023-04-09T08:16:43;12.70;99.90
55064;DHT22;40963;52.168;21.296;2023-04-09T08:19:10;12.70;99.90
55064;DHT22;40963;52.168;21.296;2023-04-09T08:21:37;12.60;99.90
55064;DHT22;40963;52.168;21.296;2023-04-09T08:24:04;12.60;99.90
55064;DHT22;40963;52.168;21.296;2023-04-09T08:26:30;12.60;99.90
55064;DHT22;40963;52.168;21.296;2023-04-09T08:28:56;12.60;99.90
55064;DHT22;40963;52.168;21.296;2023-04-09T08:31:22;12.60;99.90
55064;DHT22;40963;52.168;21.296;2023-04-09T08:33:48;12.80;99.90
55064;DHT22;40963;52.168;21.296;2023-04-09T08:36:13;12.90;99.90
55064;DHT22;40963;52.168;21.296;2023-04-09T08:38:39;13.00;99.90
55064;DHT22;40963;52.168;21.296;2023-04-09T08:41:05;13.00;99.90
55064;DHT22;40963;52.168;21.296;2023-04-09T08:43:32;13.10;99.90
55064;DHT22;40963;52.168;21.296;2023-04-09T08:45:59;13.20;99.90
55064;DHT22;40963;52.168;21.296;2023-04-09T08:48:27;13.30;99.90
55064;DHT22;40963;52.168;21.296;2023-04-09T08:50:52;13.30;99.90
55064;DHT22;40963;52.168;21.296;2023-04-09T08:53:20;13.30;99.90
55064;DHT22;40963;52.168;21.296;2023-04-09T08:55:47;13.30;99.90
55064;DHT22;40963;52.168;21.296;2023-04-09T08:58:13;13.40;99.90
55064;DHT22;40963;52.168;21.296;2023-04-09T09:00:38;13.40;99.90
55064;DHT22;40963;52.168;21.296;2023-04-09T09:03:11;13.50;99.90
55064;DHT22;40963;52.168;21.296;2023-04-09T09:05:44;13.60;99.90
55064;DHT22;40963;52.168;21.296;2023-04-09T09:08:12;13.60;99.90
55064;DHT22;40963;52.168;21.296;2023-04-09T09:10:45;13.80;99.90
55064;DHT22;40963;52.168;21.296;2023-04-09T09:13:24;13.90;99.90
55064;DHT22;40963;52.168;21.296;2023-04-09T09:15:52;13.90;99.90
55064;DHT22;40963;52.168;21.296;2023-04-09T09:18:36;13.80;99.90
55064;DHT22;40963;52.168;21.296;2023-04-09T09:21:12;13.90;99.90
55064;DHT22;40963;52.168;21.296;2023-04-09T09:23:38;13.90;99.90
55064;DHT22;40963;52.168;21.296;2023-04-09T09:26:14;14.00;99.50
55064;DHT22;40963;52.168;21.296;2023-04-09T09:28:41;14.00;99.30
55064;DHT22;40963;52.168;21.296;2023-04-09T09:31:08;14.10;98.90
55064;DHT22;40963;52.168;21.296;2023-04-09T09:33:34;14.10;97.50
55064;DHT22;40963;52.168;21.296;2023-04-09T09:36:00;14.00;96.30
55064;DHT22;40963;52.168;21.296;2023-04-09T09:38:28;13.90;96.20
55064;DHT22;40963;52.168;21.296;2023-04-09T09:40:54;13.90;96.70
55064;DHT22;40963;52.168;21.296;2023-04-09T09:43:19;13.90;96.90
55064;DHT22;40963;52.168;21.296;2023-04-09T09:45:46;13.90;96.00
55064;DHT22;40963;52.168;21.296;2023-04-09T09:48:12;13.80;95.50
55064;DHT22;40963;52.168;21.296;2023-04-09T09:50:39;13.80;95.30
55064;DHT22;40963;52.168;21.296;2023-04-09T09:53:09;13.70;95.70
55064;DHT22;40963;52.168;21.296;2023-04-09T09:55:40;13.60;95.30
55064;DHT22;40963;52.168;21.296;2023-04-09T09:58:18;13.60;95.60
55064;DHT22;40963;52.168;21.296;2023-04-09T10:00:49;13.60;95.80
55064;DHT22;40963;52.168;21.296;2023-04-09T10:03:23;13.60;95.70
55064;DHT22;40963;52.168;21.296;2023-04-09T10:05:50;13.70;95.50
55064;DHT22;40963;52.168;21.296;2023-04-09T10:08:19;13.60;95.00
55064;DHT22;40963;52.168;21.296;2023-04-09T10:10:46;13.70;94.90
55064;DHT22;40963;52.168;21.296;2023-04-09T10:13:17;13.60;94.70
55064;DHT22;40963;52.168;21.296;2023-04-09T10:15:46;13.70;94.30
55064;DHT22;40963;52.168;21.296;2023-04-09T10:18:13;13.70;94.10
55064;DHT22;40963;52.168;21.296;2023-04-09T10:20:42;13.70;94.20
55064;DHT22;40963;52.168;21.296;2023-04-09T10:23:21;13.80;94.00
55064;DHT22;40963;52.168;21.296;2023-04-09T10:25:48;13.90;93.10
55064;DHT22;40963;52.168;21.296;2023-04-09T10:28:17;13.90;93.00
55064;DHT22;40963;52.168;21.296;2023-04-09T10:30:42;14.00;92.70
55064;DHT22;40963;52.168;21.296;2023-04-09T10:33:18;14.00;92.30
55064;DHT22;40963;52.168;21.296;2023-04-09T10:35:46;14.10;92.00
55064;DHT22;40963;52.168;21.296;2023-04-09T10:38:14;14.00;91.90
55064;DHT22;40963;52.168;21.296;2023-04-09T10:40:49;14.00;91.80
55064;DHT22;40963;52.168;21.296;2023-04-09T10:43:18;14.00;91.80
55064;DHT22;40963;52.168;21.296;2023-04-09T10:45:48;14.00;91.60
55064;DHT22;40963;52.168;21.296;2023-04-09T10:48:19;14.00;91.90
55064;DHT22;40963;52.168;21.296;2023-04-09T10:50:49;14.00;91.40
55064;DHT22;40963;52.168;21.296;2023-04-09T10:53:22;14.10;92.00
55064;DHT22;40963;52.168;21.296;2023-04-09T10:55:49;14.30;92.20
55064;DHT22;40963;52.168;21.296;2023-04-09T10:58:15;14.50;91.70
55064;DHT22;40963;52.168;21.296;2023-04-09T11:00:43;14.60;90.10
55064;DHT22;40963;52.168;21.296;2023-04-09T11:03:20;14.70;87.80
55064;DHT22;40963;52.168;21.296;2023-04-09T11:05:49;14.70;88.10
55064;DHT22;40963;52.168;21.296;2023-04-09T11:08:15;14.80;87.40
55064;DHT22;40963;52.168;21.296;2023-04-09T11:10:43;14.80;86.40
55064;DHT22;40963;52.168;21.296;2023-04-09T11:13:16;14.80;85.60
55064;DHT22;40963;52.168;21.296;2023-04-09T11:15:43;14.70;86.10
55064;DHT22;40963;52.168;21.296;2023-04-09T11:18:20;14.70;86.20
55064;DHT22;40963;52.168;21.296;2023-04-09T11:20:46;14.70;85.40
55064;DHT22;40963;52.168;21.296;2023-04-09T11:23:12;14.70;86.40
55064;DHT22;40963;52.168;21.296;2023-04-09T11:25:38;14.70;85.20
55064;DHT22;40963;52.168;21.296;2023-04-09T11:28:05;14.70;85.70
55064;DHT22;40963;52.168;21.296;2023-04-09T11:30:32;14.90;87.40
55064;DHT22;40963;52.168;21.296;2023-04-09T11:32:59;15.00;86.50
55064;DHT22;40963;52.168;21.296;2023-04-09T11:35:24;15.20;85.60
55064;DHT22;40963;52.168;21.296;2023-04-09T11:37:50;15.40;84.70
55064;DHT22;40963;52.168;21.296;2023-04-09T11:40:24;15.50;82.30
55064;DHT22;40963;52.168;21.296;2023-04-09T11:42:54;15.50;81.60
55064;DHT22;40963;52.168;21.296;2023-04-09T11:45:24;15.60;79.50
55064;DHT22;40963;52.168;21.296;2023-04-09T11:47:51;15.50;77.90
55064;DHT22;40963;52.168;21.296;2023-04-09T11:50:16;15.50;77.40
55064;DHT22;40963;52.168;21.296;2023-04-09T11:52:44;15.50;77.20
55064;DHT22;40963;52.168;21.296;2023-04-09T11:55:11;15.50;77.00
55064;DHT22;40963;52.168;21.296;2023-04-09T11:57:42;15.40;76.40
55064;DHT22;40963;52.168;21.296;2023-04-09T12:00:12;15.40;77.00
55064;DHT22;40963;52.168;21.296;2023-04-09T12:02:46;15.40;77.20
55064;DHT22;40963;52.168;21.296;2023-04-09T12:07:47;15.30;78.10
55064;DHT22;40963;52.168;21.296;2023-04-09T12:10:13;15.20;78.70
55064;DHT22;40963;52.168;21.296;2023-04-09T12:12:46;15.00;79.20
55064;DHT22;40963;52.168;21.296;2023-04-09T12:15:23;14.90;79.80
55064;DHT22;40963;52.168;21.296;2023-04-09T12:17:50;14.70;80.90
55064;DHT22;40963;52.168;21.296;2023-04-09T12:20:29;14.60;82.60
55064;DHT22;40963;52.168;21.296;2023-04-09T12:22:56;14.60;83.80
55064;DHT22;40963;52.168;21.296;2023-04-09T12:25:22;14.50;84.50
55064;DHT22;40963;52.168;21.296;2023-04-09T12:27:47;14.40;85.30
55064;DHT22;40963;52.168;21.296;2023-04-09T12:30:13;14.40;85.90
55064;DHT22;40963;52.168;21.296;2023-04-09T12:32:39;14.30;86.10
55064;DHT22;40963;52.168;21.296;2023-04-09T12:35:04;14.30;86.60
55064;DHT22;40963;52.168;21.296;2023-04-09T12:37:30;14.30;86.60
55064;DHT22;40963;52.168;21.296;2023-04-09T12:39:56;14.20;86.80
55064;DHT22;40963;52.168;21.296;2023-04-09T12:42:21;14.20;87.60
55064;DHT22;40963;52.168;21.296;2023-04-09T12:44:47;14.20;88.80
55064;DHT22;40963;52.168;21.296;2023-04-09T12:47:12;14.20;89.50
55064;DHT22;40963;52.168;21.296;2023-04-09T12:49:38;14.10;90.30
55064;DHT22;40963;52.168;21.296;2023-04-09T12:52:04;14.10;91.60
55064;DHT22;40963;52.168;21.296;2023-04-09T12:54:30;14.00;93.20
55064;DHT22;40963;52.168;21.296;2023-04-09T12:56:55;13.80;94.90
55064;DHT22;40963;52.168;21.296;2023-04-09T12:59:21;13.60;96.50
55064;DHT22;40963;52.168;21.296;2023-04-09T13:01:47;13.40;97.60
55064;DHT22;40963;52.168;21.296;2023-04-09T13:04:12;13.20;99.10
55064;DHT22;40963;52.168;21.296;2023-04-09T13:06:38;13.10;99.90
55064;DHT22;40963;52.168;21.296;2023-04-09T13:09:03;12.90;99.90
55064;DHT22;40963;52.168;21.296;2023-04-09T13:11:29;12.90;99.90
55064;DHT22;40963;52.168;21.296;2023-04-09T13:13:55;12.80;99.90
55064;DHT22;40963;52.168;21.296;2023-04-09T13:16:20;12.60;99.90
55064;DHT22;40963;52.168;21.296;2023-04-09T13:18:46;12.50;99.90
55064;DHT22;40963;52.168;21.296;2023-04-09T13:21:12;12.40;99.90
55064;DHT22;40963;52.168;21.296;2023-04-09T13:23:43;12.40;99.90
55064;DHT22;40963;52.168;21.296;2023-04-09T13:26:08;12.50;99.90
55064;DHT22;40963;52.168;21.296;2023-04-09T13:28:34;12.50;99.90
55064;DHT22;40963;52.168;21.296;2023-04-09T13:30:59;12.40;99.90
55064;DHT22;40963;52.168;21.296;2023-04-09T13:33:25;12.40;99.90
55064;DHT22;40963;52.168;21.296;2023-04-09T13:35:51;12.40;99.90
55064;DHT22;40963;52.168;21.296;2023-04-09T13:38:16;12.40;99.90
55064;DHT22;40963;52.168;21.296;2023-04-09T13:40:42;12.50;99.90
55064;DHT22;40963;52.168;21.296;2023-04-09T13:43:08;12.50;99.90
55064;DHT22;40963;52.168;21.296;2023-04-09T13:45:34;12.60;99.90
55064;DHT22;40963;52.168;21.296;2023-04-09T13:48:00;12.80;99.90
55064;DHT22;40963;52.168;21.296;2023-04-09T13:50:25;12.90;99.90
55064;DHT22;40963;52.168;21.296;2023-04-09T13:52:51;13.00;99.90
55064;DHT22;40963;52.168;21.296;2023-04-09T13:55:16;13.10;99.90
55064;DHT22;40963;52.168;21.296;2023-04-09T13:57:42;13.30;99.90
55064;DHT22;40963;52.168;21.296;2023-04-09T14:00:08;13.40;99.90
55064;DHT22;40963;52.168;21.296;2023-04-09T14:02:34;13.50;99.90
55064;DHT22;40963;52.168;21.296;2023-04-09T14:04:59;13.60;99.60
55064;DHT22;40963;52.168;21.296;2023-04-09T14:07:26;13.60;99.00
55064;DHT22;40963;52.168;21.296;2023-04-09T14:09:52;13.70;98.60
55064;DHT22;40963;52.168;21.296;2023-04-09T14:12:17;13.70;97.70
55064;DHT22;40963;52.168;21.296;2023-04-09T14:14:43;13.70;96.60
55064;DHT22;40963;52.168;21.296;2023-04-09T14:17:08;13.60;96.00
55064;DHT22;40963;52.168;21.296;2023-04-09T14:19:34;13.60;95.60
55064;DHT22;40963;52.168;21.296;2023-04-09T14:22:00;13.60;95.40
55064;DHT22;40963;52.168;21.296;2023-04-09T14:24:25;13.60;95.40
55064;DHT22;40963;52.168;21.296;2023-04-09T14:26:51;13.60;95.00
55064;DHT22;40963;52.168;21.296;2023-04-09T14:29:18;13.60;95.20
55064;DHT22;40963;52.168;21.296;2023-04-09T14:31:44;13.60;95.00
55064;DHT22;40963;52.168;21.296;2023-04-09T14:34:11;13.60;94.80
55064;DHT22;40963;52.168;21.296;2023-04-09T14:36:37;13.60;95.10
55064;DHT22;40963;52.168;21.296;2023-04-09T14:39:02;13.60;95.30
55064;DHT22;40963;52.168;21.296;2023-04-09T14:41:28;13.60;95.10
55064;DHT22;40963;52.168;21.296;2023-04-09T14:43:53;13.60;95.50
55064;DHT22;40963;52.168;21.296;2023-04-09T14:46:19;13.60;95.50
55064;DHT22;40963;52.168;21.296;2023-04-09T14:48:46;13.70;95.40
55064;DHT22;40963;52.168;21.296;2023-04-09T14:51:11;13.70;95.80
55064;DHT22;40963;52.168;21.296;2023-04-09T14:53:37;13.70;95.80
55064;DHT22;40963;52.168;21.296;2023-04-09T14:56:03;13.80;95.70
55064;DHT22;40963;52.168;21.296;2023-04-09T14:58:28;13.80;95.30
55064;DHT22;40963;52.168;21.296;2023-04-09T15:00:54;13.80;93.80
55064;DHT22;40963;52.168;21.296;2023-04-09T15:03:20;13.90;93.10
55064;DHT22;40963;52.168;21.296;2023-04-09T15:05:46;14.00;92.30
55064;DHT22;40963;52.168;21.296;2023-04-09T15:08:12;14.10;91.20
55064;DHT22;40963;52.168;21.296;2023-04-09T15:10:38;14.20;90.00
55064;DHT22;40963;52.168;21.296;2023-04-09T15:13:03;14.30;87.70
55064;DHT22;40963;52.168;21.296;2023-04-09T15:15:29;14.40;85.20
55064;DHT22;40963;52.168;21.296;2023-04-09T15:17:55;14.50;84.00
55064;DHT22;40963;52.168;21.296;2023-04-09T15:20:21;14.60;82.90
55064;DHT22;40963;52.168;21.296;2023-04-09T15:22:47;14.60;81.80
55064;DHT22;40963;52.168;21.296;2023-04-09T15:25:12;14.60;81.20
55064;DHT22;40963;52.168;21.296;2023-04-09T15:27:38;14.70;81.00